createdAt,value
2018-06-12T00:01:39.109Z,99.90
2018-06-12T00:09:01.544Z,99.90
2018-06-12T00:11:29.517Z,99.90
2018-06-12T00:13:57.023Z,99.90
2018-06-12T00:16:24.514Z,99.90
2018-06-12T00:18:52.055Z,99.90
2018-06-12T00:21:19.554Z,99.90
2018-06-12T00:23:47.284Z,99.90
2018-06-12T00:26:14.841Z,99.90
2018-06-12T00:28:42.390Z,99.90
2018-06-12T00:31:09.889Z,99.90
2018-06-12T00:33:37.391Z,99.90
2018-06-12T00:36:04.938Z,99.90
2018-06-12T00:38:32.446Z,99.90
2018-06-12T00:41:00.077Z,99.90
2018-06-12T00:43:27.621Z,99.90
2018-06-12T00:45:55.113Z,99.90
2018-06-12T00:48:22.587Z,99.90
2018-06-12T00:50:50.130Z,99.90
2018-06-12T00:58:12.537Z,99.90
2018-06-12T01:00:40.077Z,99.90
2018-06-12T01:03:07.722Z,99.90
2018-06-12T01:05:35.255Z,99.90
2018-06-12T01:08:02.795Z,99.90
2018-06-12T01:10:30.335Z,99.90
2018-06-12T01:12:58.654Z,99.90
2018-06-12T01:15:26.158Z,99.90
2018-06-12T01:17:53.652Z,99.90
2018-06-12T01:20:21.149Z,99.90
2018-06-12T01:25:16.106Z,99.90
2018-06-12T01:27:43.611Z,99.90
2018-06-12T01:30:11.147Z,99.90
2018-06-12T01:32:38.688Z,99.90
2018-06-12T01:35:06.248Z,99.90
2018-06-12T01:37:33.795Z,99.90
2018-06-12T01:40:01.354Z,99.90
2018-06-12T01:42:28.913Z,99.90
2018-06-12T01:44:56.467Z,99.90
2018-06-12T01:47:23.991Z,99.90
2018-06-12T01:49:51.543Z,99.90
2018-06-12T01:52:19.109Z,99.90
2018-06-12T01:54:46.683Z,99.90
2018-06-12T01:57:14.216Z,99.90
2018-06-12T01:59:41.772Z,99.90
2018-06-12T02:02:09.282Z,99.90
2018-06-12T02:04:36.822Z,99.90
2018-06-12T02:07:04.350Z,99.90
2018-06-12T02:09:32.146Z,99.90
2018-06-12T02:11:59.667Z,99.90
2018-06-12T02:14:27.223Z,99.90
2018-06-12T02:16:54.754Z,99.90
2018-06-12T02:19:26.120Z,99.90
2018-06-12T02:21:53.707Z,99.90
2018-06-12T02:24:21.255Z,99.90
2018-06-12T02:26:48.800Z,99.90
2018-06-12T02:29:16.380Z,99.90
2018-06-12T02:31:43.894Z,99.90
2018-06-12T02:34:11.400Z,99.90
2018-06-12T02:36:38.987Z,99.90
2018-06-12T02:39:07.091Z,99.90
2018-06-12T02:41:34.631Z,99.90
2018-06-12T02:44:02.345Z,99.90
2018-06-12T02:46:29.875Z,99.90
2018-06-12T02:48:57.438Z,99.90
2018-06-12T02:51:24.991Z,99.90
2018-06-12T02:56:20.044Z,99.90
2018-06-12T02:58:47.558Z,99.90
2018-06-12T03:01:15.064Z,99.90
2018-06-12T03:03:42.627Z,99.90
2018-06-12T03:06:10.171Z,99.90
2018-06-12T03:08:37.722Z,99.90
2018-06-12T03:11:05.315Z,99.90
2018-06-12T03:13:32.896Z,99.90
2018-06-12T03:16:00.449Z,99.90
2018-06-12T03:18:27.992Z,99.90
2018-06-12T03:20:55.529Z,99.90
2018-06-12T03:23:23.538Z,99.90
2018-06-12T03:25:57.536Z,99.90
2018-06-12T03:28:25.101Z,99.90
2018-06-12T03:30:52.673Z,99.90
2018-06-12T03:33:20.204Z,99.90
2018-06-12T03:35:47.821Z,99.90
2018-06-12T03:38:15.335Z,99.90
2018-06-12T03:40:42.894Z,99.90
2018-06-12T03:43:10.413Z,99.90
2018-06-12T03:45:37.995Z,99.90
2018-06-12T03:48:05.546Z,99.90
2018-06-12T03:50:33.068Z,99.90
2018-06-12T03:53:00.599Z,99.90
2018-06-12T03:55:29.095Z,99.90
2018-06-12T03:57:56.615Z,99.90
2018-06-12T04:00:24.162Z,99.90
2018-06-12T04:02:51.718Z,99.90
2018-06-12T04:05:19.542Z,99.90
2018-06-12T04:07:47.158Z,99.90
2018-06-12T04:10:14.723Z,99.90
2018-06-12T04:12:42.810Z,99.90
2018-06-12T04:15:10.343Z,99.90
2018-06-12T04:17:37.904Z,99.90
2018-06-12T04:20:05.445Z,99.90
2018-06-12T04:22:32.996Z,99.90
2018-06-12T04:25:00.637Z,99.90
2018-06-12T04:27:29.307Z,99.90
2018-06-12T04:29:56.852Z,99.90
2018-06-12T04:32:24.973Z,99.90
2018-06-12T04:34:52.705Z,99.90
2018-06-12T04:37:20.254Z,99.90
2018-06-12T04:39:47.834Z,99.90
2018-06-12T04:42:15.362Z,99.90
2018-06-12T04:44:42.910Z,99.90
2018-06-12T04:47:10.469Z,99.90
2018-06-12T04:49:38.032Z,99.90
2018-06-12T04:52:05.609Z,99.90
2018-06-12T04:54:33.366Z,99.90
2018-06-12T04:57:00.879Z,99.90
2018-06-12T04:59:28.380Z,99.90
2018-06-12T05:01:56.833Z,99.90
2018-06-12T05:04:24.670Z,99.90
2018-06-12T05:06:52.558Z,99.90
2018-06-12T05:09:20.452Z,99.90
2018-06-12T05:11:48.079Z,99.90
2018-06-12T05:14:15.631Z,99.90
2018-06-12T05:16:43.248Z,99.90
2018-06-12T05:19:10.800Z,99.90
2018-06-12T05:21:38.680Z,99.90
2018-06-12T05:24:06.246Z,99.90
2018-06-12T05:26:33.824Z,99.90
2018-06-12T05:29:01.413Z,99.90
2018-06-12T05:31:29.468Z,99.90
2018-06-12T05:33:57.016Z,99.90
2018-06-12T05:36:24.623Z,99.90
2018-06-12T05:38:52.160Z,99.90
2018-06-12T05:41:19.844Z,99.90
2018-06-12T05:43:47.407Z,99.90
2018-06-12T05:46:14.976Z,99.90
2018-06-12T05:48:42.510Z,99.90
2018-06-12T05:51:10.107Z,99.90
2018-06-12T05:53:37.658Z,99.90
2018-06-12T05:56:05.250Z,99.90
2018-06-12T05:58:32.789Z,99.90
2018-06-12T06:01:00.360Z,99.90
2018-06-12T06:03:27.881Z,99.90
2018-06-12T06:05:55.520Z,99.90
2018-06-12T06:08:23.043Z,99.90
2018-06-12T06:10:51.182Z,99.90
2018-06-12T06:13:18.719Z,99.90
2018-06-12T06:15:46.359Z,99.90
2018-06-12T06:18:13.950Z,99.90
2018-06-12T06:20:41.496Z,99.90
2018-06-12T06:23:09.039Z,99.90
2018-06-12T06:25:36.578Z,99.90
2018-06-12T06:28:04.159Z,99.90
2018-06-12T06:32:59.603Z,99.90
2018-06-12T06:35:27.341Z,99.90
2018-06-12T06:37:54.878Z,99.90
2018-06-12T06:40:22.440Z,99.90
2018-06-12T06:42:50.030Z,99.90
2018-06-12T06:45:17.691Z,99.90
2018-06-12T06:47:45.230Z,99.90
2018-06-12T06:50:12.803Z,99.90
2018-06-12T06:52:40.353Z,99.90
2018-06-12T06:55:07.898Z,99.90
2018-06-12T06:57:35.671Z,99.90
2018-06-12T07:00:03.532Z,99.90
2018-06-12T07:02:31.091Z,99.90
2018-06-12T07:04:58.657Z,99.90
2018-06-12T07:07:26.263Z,99.90
2018-06-12T07:09:53.913Z,99.90
2018-06-12T07:12:21.708Z,99.90
2018-06-12T07:14:49.243Z,99.90
2018-06-12T07:17:16.838Z,99.90
2018-06-12T07:19:44.366Z,99.90
2018-06-12T07:22:11.949Z,99.90
2018-06-12T07:24:39.527Z,99.90
2018-06-12T07:27:07.079Z,99.90
2018-06-12T07:29:34.665Z,99.90
2018-06-12T07:32:02.214Z,99.90
2018-06-12T07:34:29.865Z,99.90
2018-06-12T07:36:57.592Z,99.90
2018-06-12T07:41:52.970Z,99.90
2018-06-12T07:44:20.523Z,99.90
2018-06-12T07:46:48.088Z,99.90
2018-06-12T07:49:15.642Z,99.90
2018-06-12T07:51:43.207Z,99.90
2018-06-12T07:54:10.739Z,99.90
2018-06-12T07:56:38.287Z,99.90
2018-06-12T07:59:05.799Z,99.90
2018-06-12T08:01:33.345Z,99.90
2018-06-12T08:04:01.078Z,99.90
2018-06-12T08:06:28.644Z,99.90
2018-06-12T08:08:56.202Z,99.90
2018-06-12T08:13:51.812Z,99.90
2018-06-12T08:16:19.496Z,99.90
2018-06-12T08:18:47.067Z,99.90
2018-06-12T08:21:15.725Z,99.90
2018-06-12T08:23:43.258Z,99.90
2018-06-12T08:26:10.781Z,99.90
2018-06-12T08:28:38.277Z,99.90
2018-06-12T08:31:05.843Z,99.90
2018-06-12T08:33:33.394Z,99.90
2018-06-12T08:36:01.029Z,98.60
2018-06-12T08:38:28.571Z,99.20
2018-06-12T08:40:56.206Z,98.60
2018-06-12T08:43:23.867Z,98.20
2018-06-12T08:45:51.471Z,98.60
2018-06-12T08:48:19.037Z,97.50
2018-06-12T08:50:46.863Z,97.70
2018-06-12T08:53:14.740Z,97.30
2018-06-12T08:55:42.304Z,97.00
2018-06-12T08:58:09.883Z,97.80
2018-06-12T09:00:37.460Z,98.50
2018-06-12T09:03:04.998Z,99.40
2018-06-12T09:05:32.531Z,98.30
2018-06-12T09:08:00.082Z,98.90
2018-06-12T09:10:27.655Z,99.30
2018-06-12T09:15:22.679Z,99.90
2018-06-12T09:20:17.741Z,99.90
2018-06-12T09:22:45.311Z,99.90
2018-06-12T09:25:12.944Z,99.90
2018-06-12T09:27:46.159Z,99.90
2018-06-12T09:30:13.746Z,99.90
2018-06-12T09:32:41.254Z,99.90
2018-06-12T09:35:08.972Z,99.90
2018-06-12T09:37:36.569Z,99.90
2018-06-12T09:40:04.185Z,99.90
2018-06-12T09:42:31.717Z,99.90
2018-06-12T09:44:59.267Z,99.90
2018-06-12T09:47:26.813Z,99.40
2018-06-12T09:49:54.400Z,99.20
2018-06-12T09:52:24.162Z,99.90
2018-06-12T09:54:52.570Z,99.50
2018-06-12T09:59:47.779Z,98.00
2018-06-12T10:02:15.265Z,96.20
2018-06-12T10:04:42.803Z,97.20
2018-06-12T10:07:10.352Z,96.60
2018-06-12T10:09:37.888Z,96.60
2018-06-12T10:12:05.451Z,96.90
2018-06-12T10:14:33.014Z,97.70
2018-06-12T10:17:00.551Z,96.00
2018-06-12T10:19:28.102Z,95.60
2018-06-12T10:21:55.657Z,95.70
2018-06-12T10:24:24.303Z,95.40
2018-06-12T10:29:19.431Z,94.10
2018-06-12T10:34:14.470Z,93.40
2018-06-12T10:36:42.035Z,87.70
2018-06-12T10:39:09.686Z,86.30
2018-06-12T10:41:37.251Z,88.10
2018-06-12T10:44:04.874Z,90.60
2018-06-12T10:46:32.415Z,86.50
2018-06-12T10:48:59.963Z,80.90
2018-06-12T10:51:27.639Z,82.60
2018-06-12T10:53:55.411Z,83.50
2018-06-12T10:56:22.945Z,81.80
2018-06-12T10:58:50.461Z,77.60
2018-06-12T11:01:18.032Z,75.20
2018-06-12T11:03:45.631Z,71.80
2018-06-12T11:06:13.154Z,76.20
2018-06-12T11:08:40.677Z,77.20
2018-06-12T11:11:08.174Z,78.40
2018-06-12T11:13:35.662Z,82.80
2018-06-12T11:16:03.226Z,85.30
2018-06-12T11:18:30.933Z,87.90
2018-06-12T11:20:58.488Z,85.40
2018-06-12T11:23:26.195Z,86.30
2018-06-12T11:25:53.703Z,90.10
2018-06-12T11:28:21.229Z,90.20
2018-06-12T11:30:48.815Z,90.60
2018-06-12T11:33:16.342Z,92.00
2018-06-12T11:35:43.855Z,93.70
2018-06-12T11:38:11.408Z,92.60
2018-06-12T11:40:38.930Z,93.30
2018-06-12T11:43:06.448Z,93.80
2018-06-12T11:45:33.975Z,93.90
2018-06-12T11:48:01.533Z,94.70
2018-06-12T11:50:29.067Z,94.60
2018-06-12T11:52:56.780Z,94.60
2018-06-12T11:55:24.434Z,94.10
2018-06-12T12:00:19.536Z,94.00
2018-06-12T12:02:47.107Z,93.90
2018-06-12T12:05:14.637Z,94.00
2018-06-12T12:07:42.169Z,92.90
2018-06-12T12:10:09.737Z,91.90
2018-06-12T12:12:37.414Z,91.10
2018-06-12T12:15:05.072Z,91.90
2018-06-12T12:17:32.627Z,89.00
2018-06-12T12:20:00.183Z,90.50
2018-06-12T12:22:28.015Z,88.20
2018-06-12T12:24:55.571Z,84.30
2018-06-12T12:27:23.218Z,83.20
2018-06-12T12:29:50.771Z,85.30
2018-06-12T12:32:18.336Z,85.90
2018-06-12T12:34:46.111Z,87.00
2018-06-12T12:37:13.630Z,86.60
2018-06-12T12:39:41.157Z,87.40
2018-06-12T12:42:08.680Z,82.20
2018-06-12T12:44:36.372Z,90.20
2018-06-12T12:47:03.955Z,90.20
2018-06-12T12:49:31.482Z,84.10
2018-06-12T12:51:59.017Z,87.30
2018-06-12T12:54:26.577Z,87.20
2018-06-12T12:56:54.532Z,87.20
2018-06-12T12:59:22.097Z,88.30
2018-06-12T13:01:49.679Z,88.20
2018-06-12T13:04:17.223Z,90.10
2018-06-12T13:06:44.763Z,91.10
2018-06-12T13:09:12.431Z,90.50
2018-06-12T13:11:39.979Z,91.50
2018-06-12T13:14:07.510Z,91.40
2018-06-12T13:16:35.374Z,92.30
2018-06-12T13:19:02.943Z,92.20
2018-06-12T13:21:30.602Z,91.30
2018-06-12T13:23:58.151Z,91.90
2018-06-12T13:26:25.678Z,91.90
2018-06-12T13:28:53.233Z,92.70
2018-06-12T13:31:21.054Z,92.90
2018-06-12T13:33:48.710Z,93.30
2018-06-12T13:36:16.228Z,93.70
2018-06-12T13:38:43.770Z,94.00
2018-06-12T13:41:11.362Z,94.30
2018-06-12T13:43:38.908Z,94.80
2018-06-12T13:46:10.381Z,95.10
2018-06-12T13:48:38.057Z,94.50
2018-06-12T13:51:05.620Z,95.50
2018-06-12T13:53:33.299Z,95.70
2018-06-12T13:56:01.051Z,95.40
2018-06-12T13:58:28.627Z,96.20
2018-06-12T14:00:56.158Z,96.70
2018-06-12T14:03:23.707Z,98.00
2018-06-12T14:05:51.327Z,98.70
2018-06-12T14:08:18.907Z,99.20
2018-06-12T14:10:50.434Z,99.70
2018-06-12T14:13:18.043Z,99.90
2018-06-12T14:15:45.608Z,99.90
2018-06-12T14:18:13.210Z,99.90
2018-06-12T14:20:40.780Z,99.90
2018-06-12T14:23:08.345Z,99.90
2018-06-12T14:25:35.867Z,99.90
2018-06-12T14:28:03.603Z,99.90
2018-06-12T14:30:31.158Z,99.90
2018-06-12T14:33:00.812Z,99.90
2018-06-12T14:35:28.400Z,99.90
2018-06-12T14:37:55.951Z,99.90
2018-06-12T14:40:23.516Z,99.90
2018-06-12T14:42:51.125Z,99.90
2018-06-12T14:45:18.659Z,99.90
2018-06-12T14:47:46.259Z,99.90
2018-06-12T14:50:13.935Z,99.90
2018-06-12T14:52:51.715Z,99.90
2018-06-12T14:55:19.241Z,99.90
2018-06-12T14:57:46.789Z,99.90
2018-06-12T15:00:14.320Z,99.90
2018-06-12T15:02:41.883Z,99.90
2018-06-12T15:05:09.436Z,99.90
2018-06-12T15:07:36.935Z,99.90
2018-06-12T15:10:04.507Z,99.90
2018-06-12T15:12:32.033Z,99.90
2018-06-12T15:14:59.610Z,99.90
2018-06-12T15:17:27.557Z,99.90
2018-06-12T15:22:22.667Z,99.90
2018-06-12T15:24:50.199Z,99.90
2018-06-12T15:27:17.722Z,99.90
2018-06-12T15:29:45.343Z,99.90
2018-06-12T15:32:13.214Z,99.90
2018-06-12T15:34:40.748Z,99.90
2018-06-12T15:37:08.274Z,99.90
2018-06-12T15:39:35.803Z,99.90
2018-06-12T15:42:03.771Z,99.90
2018-06-12T15:44:31.315Z,99.90
2018-06-12T15:46:58.839Z,99.90
2018-06-12T15:49:34.037Z,99.90
2018-06-12T15:52:01.707Z,99.90
2018-06-12T15:54:32.599Z,99.90
2018-06-12T15:57:01.244Z,99.90
2018-06-12T15:59:31.459Z,99.90
2018-06-12T16:04:30.809Z,99.90
2018-06-12T16:07:00.140Z,99.90
2018-06-12T16:09:28.351Z,99.90
2018-06-12T16:11:55.923Z,99.90
2018-06-12T16:14:23.519Z,99.90
2018-06-12T16:16:51.075Z,99.90
2018-06-12T16:19:18.599Z,99.90
2018-06-12T16:21:46.168Z,99.90
2018-06-12T16:24:13.710Z,99.90
2018-06-12T16:26:41.315Z,99.90
2018-06-12T16:29:08.814Z,99.90
2018-06-12T16:31:36.367Z,99.90
2018-06-12T16:34:04.250Z,99.90
2018-06-12T16:36:31.895Z,99.90
2018-06-12T16:38:59.462Z,99.90
2018-06-12T16:41:27.243Z,99.90
2018-06-12T16:43:54.751Z,99.90
2018-06-12T16:46:22.282Z,99.90
2018-06-12T16:48:49.863Z,99.90
2018-06-12T16:51:17.391Z,99.90
2018-06-12T16:53:44.942Z,99.90
2018-06-12T16:56:12.491Z,99.90
2018-06-12T16:58:40.023Z,99.90
2018-06-12T17:01:07.583Z,99.90
2018-06-12T17:03:35.125Z,99.90
2018-06-12T17:06:02.700Z,99.90
2018-06-12T17:08:30.253Z,99.90
2018-06-12T17:10:59.794Z,99.90
2018-06-12T17:13:45.771Z,99.90
2018-06-12T17:16:21.260Z,99.90
2018-06-12T17:18:48.802Z,99.90
2018-06-12T17:21:16.410Z,99.90
2018-06-12T17:23:44.012Z,99.90
2018-06-12T17:26:11.603Z,99.90
2018-06-12T17:28:39.158Z,99.90
2018-06-12T17:31:06.904Z,99.90
2018-06-12T17:33:34.447Z,99.90
2018-06-12T17:36:02.299Z,99.90
2018-06-12T17:38:29.846Z,99.90
2018-06-12T17:40:57.395Z,99.90
2018-06-12T17:43:24.954Z,99.90
2018-06-12T17:45:52.530Z,99.90
2018-06-12T17:48:20.109Z,99.90
2018-06-12T17:50:47.688Z,99.90
2018-06-12T17:53:15.774Z,99.90
2018-06-12T17:55:44.743Z,99.90
2018-06-12T17:58:12.540Z,99.90
2018-06-12T18:00:40.133Z,99.90
2018-06-12T18:03:07.832Z,99.90
2018-06-12T18:05:35.431Z,99.90
2018-06-12T18:08:05.755Z,99.90
2018-06-12T18:10:33.524Z,99.90
2018-06-12T18:13:01.183Z,99.90
2018-06-12T18:15:30.635Z,99.90
2018-06-12T18:17:58.252Z,99.90
2018-06-12T18:20:26.328Z,99.90
2018-06-12T18:22:53.911Z,99.90
2018-06-12T18:25:21.575Z,99.90
2018-06-12T18:27:49.256Z,99.90
2018-06-12T18:30:16.813Z,99.90
2018-06-12T18:32:44.357Z,99.90
2018-06-12T18:35:11.958Z,99.90
2018-06-12T18:37:39.523Z,99.90
2018-06-12T18:40:07.182Z,99.90
2018-06-12T18:42:34.823Z,99.90
2018-06-12T18:45:02.632Z,99.90
2018-06-12T18:47:30.210Z,99.90
2018-06-12T18:49:58.128Z,99.90
2018-06-12T18:52:25.724Z,99.90
2018-06-12T18:54:57.228Z,99.90
2018-06-12T18:57:25.040Z,99.90
2018-06-12T18:59:52.797Z,99.90
2018-06-12T19:02:20.395Z,99.90
2018-06-12T19:07:15.660Z,99.90
2018-06-12T19:09:43.395Z,99.90
2018-06-12T19:12:10.955Z,99.90
2018-06-12T19:14:38.547Z,99.90
2018-06-12T19:17:06.822Z,99.90
2018-06-12T19:19:34.382Z,99.90
2018-06-12T19:22:01.983Z,99.90
2018-06-12T19:24:29.713Z,99.90
2018-06-12T19:26:57.268Z,99.90
2018-06-12T19:29:24.878Z,99.90
2018-06-12T19:31:52.796Z,99.90
2018-06-12T19:34:20.499Z,99.90
2018-06-12T19:36:48.106Z,99.90
2018-06-12T19:39:15.689Z,99.90
2018-06-12T19:41:43.322Z,99.90
2018-06-12T19:44:11.167Z,99.90
2018-06-12T19:46:38.935Z,99.90
2018-06-12T19:49:06.662Z,99.90
2018-06-12T19:51:34.242Z,99.90
2018-06-12T19:54:02.827Z,99.90
2018-06-12T19:56:31.691Z,99.90
2018-06-12T19:59:00.685Z,99.90
2018-06-12T20:01:28.519Z,99.90
2018-06-12T20:03:57.210Z,99.90
2018-06-12T20:06:25.027Z,99.90
2018-06-12T20:08:52.871Z,99.90
2018-06-12T20:11:24.300Z,99.90
2018-06-12T20:13:51.953Z,99.90
2018-06-12T20:16:19.584Z,99.90
2018-06-12T20:18:47.153Z,99.90
2018-06-12T20:21:14.710Z,99.90
2018-06-12T20:23:42.308Z,99.90
2018-06-12T20:26:10.542Z,99.90
2018-06-12T20:28:38.164Z,99.90
2018-06-12T20:31:05.813Z,99.90
2018-06-12T20:33:33.415Z,99.90
2018-06-12T20:36:00.990Z,99.90
2018-06-12T20:38:28.579Z,99.90
2018-06-12T20:40:56.171Z,99.90
2018-06-12T20:43:23.760Z,99.90
2018-06-12T20:45:51.525Z,99.90
2018-06-12T20:48:19.209Z,99.90
2018-06-12T20:50:46.774Z,99.90
2018-06-12T20:53:14.454Z,99.90
2018-06-12T20:55:41.955Z,99.90
2018-06-12T20:58:09.500Z,99.90
2018-06-12T21:00:39.028Z,99.90
2018-06-12T21:03:06.614Z,99.90
2018-06-12T21:05:34.216Z,99.90
2018-06-12T21:08:01.746Z,99.90
2018-06-12T21:10:29.264Z,99.90
2018-06-12T21:12:56.803Z,99.90
2018-06-12T21:15:24.366Z,99.90
2018-06-12T21:17:52.089Z,99.90
2018-06-12T21:20:20.221Z,99.90
2018-06-12T21:22:47.776Z,99.90
2018-06-12T21:25:15.348Z,99.90
2018-06-12T21:27:42.896Z,99.90
2018-06-12T21:30:10.458Z,99.90
2018-06-12T21:32:37.984Z,99.90
2018-06-12T21:35:05.556Z,99.90
2018-06-12T21:37:33.321Z,99.90
2018-06-12T21:40:00.910Z,99.90
2018-06-12T21:42:28.466Z,99.90
2018-06-12T21:44:56.046Z,99.90
2018-06-12T21:47:23.584Z,99.90
2018-06-12T21:49:51.224Z,99.90
2018-06-12T21:54:46.235Z,99.90
2018-06-12T21:59:41.299Z,99.90
2018-06-12T22:02:08.821Z,99.90
2018-06-12T22:04:36.405Z,99.90
2018-06-12T22:07:03.959Z,99.90
2018-06-12T22:09:31.513Z,99.90
2018-06-12T22:11:59.038Z,99.90
2018-06-12T22:14:28.570Z,99.90
2018-06-12T22:16:56.911Z,99.90
2018-06-12T22:19:24.504Z,99.90
2018-06-12T22:24:19.537Z,99.90
2018-06-12T22:26:47.088Z,99.90
2018-06-12T22:29:14.615Z,99.90
2018-06-12T22:34:09.698Z,99.90
2018-06-12T22:36:37.250Z,99.90
2018-06-12T22:39:07.540Z,99.90
2018-06-12T22:41:35.120Z,99.90
2018-06-12T22:46:30.419Z,99.90
2018-06-12T22:48:57.971Z,99.90
2018-06-12T22:51:25.552Z,99.90
2018-06-12T22:53:53.070Z,99.90
2018-06-12T22:56:20.928Z,99.90
2018-06-12T22:58:48.461Z,99.90
2018-06-12T23:01:15.995Z,99.90
2018-06-12T23:03:43.551Z,99.90
2018-06-12T23:06:11.127Z,99.90
2018-06-12T23:08:38.765Z,99.90
2018-06-12T23:11:06.363Z,99.90
2018-06-12T23:13:33.920Z,99.90
2018-06-12T23:16:01.565Z,99.90
2018-06-12T23:18:29.128Z,99.90
2018-06-12T23:22:05.394Z,99.90
2018-06-12T23:24:33.142Z,99.90
2018-06-12T23:27:00.711Z,99.90
2018-06-12T23:29:28.296Z,99.90
2018-06-12T23:31:55.840Z,99.90
2018-06-12T23:34:23.453Z,99.90
2018-06-12T23:36:50.975Z,99.90
2018-06-12T23:39:18.655Z,99.90
2018-06-12T23:41:46.269Z,99.90
2018-06-12T23:44:13.802Z,99.90
2018-06-12T23:58:24.382Z,99.90
